createdAt,value
2022-10-08T00:01:42.315Z,15.32
2022-10-08T00:04:12.638Z,11.57
2022-10-08T00:06:41.232Z,9.95
2022-10-08T00:09:15.932Z,10.93
2022-10-08T00:11:47.397Z,9.57
2022-10-08T00:14:21.209Z,11.15
2022-10-08T00:16:49.675Z,11.48
2022-10-08T00:19:18.190Z,13.13
2022-10-08T00:21:51.122Z,10.00
2022-10-08T00:24:21.414Z,15.30
2022-10-08T00:26:51.009Z,12.82
2022-10-08T00:29:21.604Z,10.05
2022-10-08T00:31:51.571Z,13.73
2022-10-08T00:34:22.356Z,14.70
2022-10-08T00:36:52.603Z,16.13
2022-10-08T00:39:24.822Z,13.90
2022-10-08T00:41:55.764Z,14.57
2022-10-08T00:44:51.713Z,10.73
2022-10-08T00:47:25.845Z,9.10
2022-10-08T00:49:57.426Z,13.02
2022-10-08T00:52:30.042Z,13.98
2022-10-08T00:55:00.009Z,13.68
2022-10-08T00:57:29.129Z,13.40
2022-10-08T00:59:57.976Z,11.95
2022-10-08T01:04:54.692Z,12.95
2022-10-08T01:07:27.867Z,12.70
2022-10-08T01:10:04.574Z,9.07
2022-10-08T01:12:45.147Z,11.75
2022-10-08T01:15:23.671Z,8.43
2022-10-08T01:18:02.012Z,12.75
2022-10-08T01:20:39.425Z,12.85
2022-10-08T01:23:25.562Z,12.65
2022-10-08T01:26:03.809Z,14.52
2022-10-08T01:28:40.964Z,13.88
2022-10-08T01:31:14.305Z,11.45
2022-10-08T01:33:49.240Z,15.85
2022-10-08T01:36:20.653Z,10.95
2022-10-08T01:38:54.686Z,11.35
2022-10-08T01:41:26.714Z,11.80
2022-10-08T01:44:03.802Z,9.45
2022-10-08T01:46:34.369Z,11.32
2022-10-08T01:49:07.905Z,11.20
2022-10-08T01:51:40.971Z,6.40
2022-10-08T01:54:13.637Z,11.43
2022-10-08T01:56:44.833Z,11.13
2022-10-08T01:59:19.711Z,8.27
2022-10-08T02:01:56.263Z,9.50
2022-10-08T02:04:35.762Z,13.43
2022-10-08T02:07:09.608Z,14.15
2022-10-08T02:09:40.879Z,18.00
2022-10-08T02:12:10.970Z,14.00
2022-10-08T02:14:43.044Z,19.58
2022-10-08T02:17:30.247Z,11.98
2022-10-08T02:20:04.123Z,17.00
2022-10-08T02:22:36.987Z,16.08
2022-10-08T02:25:11.464Z,15.38
2022-10-08T02:27:57.086Z,15.73
2022-10-08T02:30:31.210Z,14.73
2022-10-08T02:33:03.752Z,15.35
2022-10-08T02:35:38.888Z,11.50
2022-10-08T02:38:11.986Z,12.02
2022-10-08T02:40:44.904Z,14.55
2022-10-08T02:43:21.851Z,13.82
2022-10-08T02:46:00.159Z,12.23
2022-10-08T02:48:32.798Z,15.57
2022-10-08T02:51:06.318Z,10.88
2022-10-08T02:53:38.002Z,14.85
2022-10-08T02:56:13.033Z,15.55
2022-10-08T02:58:43.297Z,13.60
2022-10-08T03:01:24.318Z,13.30
2022-10-08T03:03:58.907Z,12.15
2022-10-08T03:06:30.021Z,16.30
2022-10-08T03:09:01.156Z,18.38
2022-10-08T03:11:31.506Z,13.50
2022-10-08T03:14:03.963Z,10.18
2022-10-08T03:16:39.156Z,8.23
2022-10-08T03:19:11.139Z,15.68
2022-10-08T03:21:40.772Z,13.68
2022-10-08T03:24:10.425Z,14.63
2022-10-08T03:26:39.453Z,15.23
2022-10-08T03:31:38.012Z,13.88
2022-10-08T03:34:06.848Z,14.90
2022-10-08T03:36:35.223Z,11.40
2022-10-08T03:39:03.801Z,10.18
2022-10-08T03:41:34.007Z,18.65
2022-10-08T03:44:02.499Z,13.15
2022-10-08T03:46:31.221Z,11.32
2022-10-08T03:49:05.481Z,8.77
2022-10-08T03:51:34.121Z,14.55
2022-10-08T03:54:05.335Z,10.65
2022-10-08T03:56:34.944Z,11.50
2022-10-08T03:59:05.289Z,16.58
2022-10-08T04:01:35.828Z,12.95
2022-10-08T04:04:09.421Z,13.30
2022-10-08T04:06:38.006Z,14.10
2022-10-08T04:09:10.731Z,14.38
2022-10-08T04:11:41.133Z,11.38
2022-10-08T04:14:09.791Z,11.55
2022-10-08T04:16:38.173Z,15.00
2022-10-08T04:19:08.146Z,13.32
2022-10-08T04:21:41.444Z,12.70
2022-10-08T04:24:13.759Z,12.68
2022-10-08T04:26:42.725Z,15.80
2022-10-08T04:31:43.841Z,13.25
2022-10-08T04:34:12.688Z,13.35
2022-10-08T04:36:42.542Z,9.32
2022-10-08T04:39:14.240Z,14.10
2022-10-08T04:41:42.921Z,18.35
2022-10-08T04:44:11.385Z,16.35
2022-10-08T04:46:42.800Z,14.75
2022-10-08T04:49:12.166Z,12.30
2022-10-08T04:51:41.816Z,12.27
2022-10-08T04:54:15.480Z,13.05
2022-10-08T04:56:46.584Z,10.68
2022-10-08T04:59:15.118Z,9.43
2022-10-08T05:01:45.818Z,13.57
2022-10-08T05:04:14.298Z,14.00
2022-10-08T05:06:42.733Z,12.05
2022-10-08T05:09:14.939Z,16.23
2022-10-08T05:11:43.765Z,12.15
2022-10-08T05:14:14.740Z,12.15
2022-10-08T05:16:44.382Z,17.17
2022-10-08T05:19:13.170Z,15.73
2022-10-08T05:21:43.450Z,10.80
2022-10-08T05:24:14.828Z,11.52
2022-10-08T05:26:59.475Z,12.55
2022-10-08T05:29:32.619Z,14.50
2022-10-08T05:32:01.250Z,15.38
2022-10-08T05:34:30.989Z,9.13
2022-10-08T05:36:59.475Z,14.25
2022-10-08T05:39:29.348Z,11.40
2022-10-08T05:41:57.794Z,15.07
2022-10-08T05:44:29.281Z,15.90
2022-10-08T05:46:58.891Z,18.35
2022-10-08T05:49:29.624Z,14.55
2022-10-08T05:52:02.292Z,14.27
2022-10-08T05:54:32.487Z,14.65
2022-10-08T05:57:01.123Z,14.68
2022-10-08T05:59:35.735Z,18.67
2022-10-08T06:02:05.406Z,14.52
2022-10-08T06:04:36.746Z,12.50
2022-10-08T06:07:05.376Z,13.93
2022-10-08T06:09:35.225Z,11.63
2022-10-08T06:12:03.885Z,17.13
2022-10-08T06:14:32.365Z,23.50
2022-10-08T06:17:00.854Z,14.95
2022-10-08T06:19:34.313Z,15.68
2022-10-08T06:22:02.839Z,16.40
2022-10-08T06:24:31.273Z,16.38
2022-10-08T06:27:03.024Z,22.65
2022-10-08T06:29:34.751Z,18.75
2022-10-08T06:32:03.393Z,21.70
2022-10-08T06:34:31.931Z,19.83
2022-10-08T06:37:00.467Z,18.80
2022-10-08T06:39:28.955Z,18.38
2022-10-08T06:42:05.918Z,16.75
2022-10-08T06:44:38.752Z,21.90
2022-10-08T06:47:07.202Z,20.27
2022-10-08T06:49:42.507Z,16.58
2022-10-08T06:52:12.678Z,16.90
2022-10-08T06:54:41.141Z,13.02
2022-10-08T06:57:10.974Z,17.58
2022-10-08T06:59:39.559Z,11.23
2022-10-08T07:02:13.260Z,14.85
2022-10-08T07:04:49.617Z,14.88
2022-10-08T07:07:19.631Z,14.90
2022-10-08T07:09:53.137Z,14.25
2022-10-08T07:12:23.159Z,17.00
2022-10-08T07:14:51.772Z,14.70
2022-10-08T07:17:22.800Z,12.88
2022-10-08T07:19:51.356Z,17.02
2022-10-08T07:22:20.054Z,13.30
2022-10-08T07:24:48.524Z,14.60
2022-10-08T07:27:17.807Z,14.75
2022-10-08T07:29:50.157Z,19.55
2022-10-08T07:32:18.714Z,15.50
2022-10-08T07:34:47.193Z,15.07
2022-10-08T07:37:15.608Z,16.05
2022-10-08T07:39:49.504Z,12.30
2022-10-08T07:42:18.024Z,9.73
2022-10-08T07:44:47.915Z,10.82
2022-10-08T07:47:20.185Z,12.40
2022-10-08T07:49:49.176Z,12.48
2022-10-08T07:52:17.568Z,11.75
2022-10-08T07:54:46.337Z,16.40
2022-10-08T07:57:14.749Z,13.10
2022-10-08T07:59:45.628Z,17.77
2022-10-08T08:02:18.497Z,27.90
2022-10-08T08:04:47.199Z,26.40
2022-10-08T08:07:15.587Z,21.85
2022-10-08T08:09:46.158Z,15.43
2022-10-08T08:12:16.496Z,13.70
2022-10-08T08:14:45.338Z,11.02
2022-10-08T08:17:14.101Z,11.73
2022-10-08T08:19:44.275Z,16.17
2022-10-08T08:22:12.884Z,16.02
2022-10-08T08:25:36.183Z,9.80
2022-10-08T08:28:05.294Z,13.45
2022-10-08T08:30:37.176Z,10.18
2022-10-08T08:33:08.637Z,10.77
2022-10-08T08:35:38.796Z,9.20
2022-10-08T08:38:07.285Z,9.38
2022-10-08T08:40:38.838Z,9.35
2022-10-08T08:43:09.738Z,12.45
2022-10-08T08:45:46.726Z,8.88
2022-10-08T08:48:23.197Z,10.60
2022-10-08T08:50:59.639Z,14.80
2022-10-08T08:53:29.147Z,9.73
2022-10-08T08:56:06.245Z,7.90
2022-10-08T08:58:42.026Z,8.88
2022-10-08T09:01:24.360Z,11.15
2022-10-08T09:03:57.418Z,7.32
2022-10-08T09:06:27.624Z,10.57
2022-10-08T09:09:13.669Z,9.10
2022-10-08T09:11:49.410Z,10.18
2022-10-08T09:14:39.087Z,11.52
2022-10-08T09:17:18.078Z,9.52
2022-10-08T09:19:53.557Z,10.38
2022-10-08T09:22:28.468Z,8.30
2022-10-08T09:25:01.001Z,8.05
2022-10-08T09:27:51.193Z,9.68
2022-10-08T09:30:34.670Z,12.52
2022-10-08T09:33:07.365Z,7.55
2022-10-08T09:35:43.487Z,11.27
2022-10-08T09:38:26.830Z,7.53
2022-10-08T09:41:04.725Z,10.38
2022-10-08T09:43:38.388Z,10.57
2022-10-08T09:46:30.823Z,9.23
2022-10-08T09:49:27.161Z,9.20
2022-10-08T09:51:58.693Z,7.75
2022-10-08T09:54:39.222Z,10.20
2022-10-08T09:57:08.049Z,7.82
2022-10-08T10:02:29.508Z,7.90
2022-10-08T10:05:00.814Z,15.25
2022-10-08T10:07:44.369Z,7.45
2022-10-08T10:10:27.361Z,7.35
2022-10-08T10:13:02.942Z,5.57
2022-10-08T10:15:35.700Z,7.20
2022-10-08T10:18:19.509Z,9.63
2022-10-08T10:20:52.368Z,8.60
2022-10-08T10:23:26.071Z,7.15
2022-10-08T10:26:04.097Z,11.35
2022-10-08T10:28:42.324Z,13.45
2022-10-08T10:31:20.473Z,9.82
2022-10-08T10:33:54.333Z,9.07
2022-10-08T10:36:26.106Z,10.70
2022-10-08T10:39:03.577Z,8.52
2022-10-08T10:41:43.501Z,8.73
2022-10-08T10:44:17.316Z,10.00
2022-10-08T10:46:49.726Z,10.48
2022-10-08T10:49:21.185Z,13.15
2022-10-08T10:52:17.968Z,15.27
2022-10-08T10:55:13.193Z,9.35
2022-10-08T10:58:00.041Z,9.10
2022-10-08T11:00:40.226Z,8.95
2022-10-08T11:03:21.269Z,9.80
2022-10-08T11:06:02.449Z,8.68
2022-10-08T11:08:41.479Z,11.07
2022-10-08T11:11:22.115Z,9.25
2022-10-08T11:14:09.049Z,13.70
2022-10-08T11:16:59.734Z,13.82
2022-10-08T11:19:55.845Z,11.23
2022-10-08T11:22:31.284Z,7.90
2022-10-08T11:25:15.686Z,9.98
2022-10-08T11:27:57.792Z,9.27
2022-10-08T11:30:41.784Z,14.27
2022-10-08T11:33:14.539Z,10.90
2022-10-08T11:35:50.827Z,13.52
2022-10-08T11:38:26.288Z,13.05
2022-10-08T11:40:57.478Z,10.00
2022-10-08T11:43:32.286Z,13.30
2022-10-08T11:46:30.852Z,16.08
2022-10-08T11:51:32.043Z,13.27
2022-10-08T11:54:26.685Z,14.32
2022-10-08T11:57:16.363Z,11.73
2022-10-08T11:59:47.609Z,15.50
2022-10-08T12:02:28.835Z,13.45
2022-10-08T12:05:00.118Z,11.27
2022-10-08T12:07:34.164Z,11.60
2022-10-08T12:10:38.794Z,18.60
2022-10-08T12:13:26.918Z,14.20
2022-10-08T12:16:04.920Z,15.05
2022-10-08T12:18:46.108Z,9.77
2022-10-08T12:21:56.601Z,10.60
2022-10-08T12:25:00.415Z,16.38
2022-10-08T12:27:39.399Z,12.32
2022-10-08T12:30:16.311Z,9.63
2022-10-08T12:33:00.479Z,8.77
2022-10-08T12:35:38.117Z,16.25
2022-10-08T12:38:22.927Z,14.85
2022-10-08T12:41:11.056Z,17.83
2022-10-08T12:43:55.419Z,13.60
2022-10-08T12:46:40.686Z,13.73
2022-10-08T12:49:22.363Z,11.70
2022-10-08T12:52:00.904Z,10.25
2022-10-08T12:54:31.722Z,11.25
2022-10-08T12:57:02.016Z,13.65
2022-10-08T12:59:35.103Z,10.35
2022-10-08T13:02:03.898Z,11.50
2022-10-08T13:04:34.755Z,13.68
2022-10-08T13:07:25.369Z,11.30
2022-10-08T13:09:56.216Z,12.48
2022-10-08T13:12:25.020Z,16.42
2022-10-08T13:17:30.424Z,9.35
2022-10-08T13:20:13.786Z,17.63
2022-10-08T13:22:44.037Z,11.70
2022-10-08T13:25:35.687Z,9.35
2022-10-08T13:28:12.953Z,12.98
2022-10-08T13:30:42.081Z,11.10
2022-10-08T13:33:15.777Z,11.63
2022-10-08T13:35:45.502Z,9.35
2022-10-08T13:38:45.513Z,9.35
2022-10-08T13:41:24.221Z,10.55
2022-10-08T13:43:52.924Z,14.18
2022-10-08T13:46:24.179Z,9.88
2022-10-08T13:48:55.578Z,14.57
2022-10-08T13:51:27.439Z,13.77
2022-10-08T13:53:57.453Z,13.40
2022-10-08T13:56:26.463Z,12.07
2022-10-08T13:58:55.244Z,14.60
2022-10-08T14:03:52.066Z,18.08
2022-10-08T14:06:20.838Z,33.88
2022-10-08T14:08:49.366Z,17.92
2022-10-08T14:11:19.303Z,22.42
2022-10-08T14:13:49.002Z,23.25
2022-10-08T14:16:17.544Z,30.48
2022-10-08T14:18:46.070Z,30.77
2022-10-08T14:21:17.103Z,26.60
2022-10-08T14:23:45.641Z,18.02
2022-10-08T14:26:14.444Z,22.58
2022-10-08T14:31:15.328Z,20.98
2022-10-08T14:33:44.006Z,20.33
2022-10-08T14:36:17.305Z,24.45
2022-10-08T14:38:45.837Z,21.13
2022-10-08T14:41:14.324Z,27.27
2022-10-08T14:43:44.421Z,21.90
2022-10-08T14:46:16.068Z,19.13
2022-10-08T14:48:44.704Z,17.42
2022-10-08T14:51:16.700Z,25.98
2022-10-08T14:53:45.328Z,19.38
2022-10-08T14:56:13.854Z,19.70
2022-10-08T14:58:43.680Z,20.80
2022-10-08T15:01:12.197Z,21.50
2022-10-08T15:03:40.681Z,19.40
2022-10-08T15:06:09.281Z,19.85
2022-10-08T15:08:38.726Z,25.38
2022-10-08T15:11:07.630Z,15.50
2022-10-08T15:16:12.348Z,21.15
2022-10-08T15:18:41.355Z,24.77
2022-10-08T15:23:41.729Z,21.40
2022-10-08T15:26:15.440Z,22.40
2022-10-08T15:28:46.345Z,22.02
2022-10-08T15:31:18.560Z,26.65
2022-10-08T15:33:48.450Z,24.52
2022-10-08T15:36:19.568Z,25.02
2022-10-08T15:38:49.146Z,24.75
2022-10-08T15:41:18.469Z,26.10
2022-10-08T15:43:47.307Z,18.08
2022-10-08T15:46:19.891Z,24.15
2022-10-08T15:48:55.869Z,19.90
2022-10-08T15:51:25.738Z,21.52
2022-10-08T15:54:01.966Z,24.25
2022-10-08T15:56:30.986Z,23.92
2022-10-08T16:01:33.056Z,28.40
2022-10-08T16:04:01.745Z,25.63
2022-10-08T16:06:34.123Z,22.52
2022-10-08T16:09:03.149Z,23.65
2022-10-08T16:16:31.642Z,28.75
2022-10-08T16:19:01.536Z,27.48
2022-10-08T16:21:32.302Z,23.33
2022-10-08T16:24:02.099Z,26.10
2022-10-08T16:26:35.800Z,26.70
2022-10-08T16:29:07.675Z,30.67
2022-10-08T16:31:39.363Z,26.38
2022-10-08T16:34:09.924Z,22.45
2022-10-08T16:36:39.735Z,30.30
2022-10-08T16:39:09.460Z,34.25
2022-10-08T16:41:38.616Z,30.25
2022-10-08T16:44:12.301Z,30.05
2022-10-08T16:46:44.653Z,27.98
2022-10-08T16:49:22.743Z,29.70
2022-10-08T16:51:54.945Z,34.25
2022-10-08T16:54:23.530Z,27.77
2022-10-08T16:56:55.087Z,33.08
2022-10-08T16:59:26.064Z,34.30
2022-10-08T17:01:58.197Z,30.00
2022-10-08T17:04:35.113Z,35.42
2022-10-08T17:07:03.734Z,39.45
2022-10-08T17:09:32.651Z,31.50
2022-10-08T17:12:01.150Z,40.50
2022-10-08T17:14:33.296Z,36.95
2022-10-08T17:17:03.320Z,36.65
2022-10-08T17:19:31.983Z,39.53
2022-10-08T17:22:00.632Z,36.90
2022-10-08T17:24:29.308Z,36.28
2022-10-08T17:26:57.941Z,32.67
2022-10-08T17:29:26.420Z,41.42
2022-10-08T17:31:55.107Z,38.38
2022-10-08T17:34:25.254Z,35.85
2022-10-08T17:36:53.889Z,42.15
2022-10-08T17:39:22.441Z,35.30
2022-10-08T17:41:50.997Z,35.50
2022-10-08T17:44:19.939Z,40.15
2022-10-08T17:49:21.625Z,32.67
2022-10-08T17:51:51.941Z,30.80
2022-10-08T17:54:21.736Z,34.60
2022-10-08T17:56:51.100Z,36.95
2022-10-08T17:59:22.830Z,32.83
2022-10-08T18:01:51.682Z,30.00
2022-10-08T18:04:21.237Z,37.35
2022-10-08T18:06:51.684Z,33.22
2022-10-08T18:09:24.769Z,33.35
2022-10-08T18:11:54.443Z,31.65
2022-10-08T18:14:23.835Z,28.23
2022-10-08T18:16:52.967Z,27.80
2022-10-08T18:19:23.765Z,33.97
2022-10-08T18:21:53.860Z,32.92
2022-10-08T18:24:22.649Z,26.67
2022-10-08T18:26:51.645Z,30.10
2022-10-08T18:29:20.438Z,31.52
2022-10-08T18:31:51.648Z,29.98
2022-10-08T18:34:21.137Z,34.35
2022-10-08T18:36:49.954Z,35.45
2022-10-08T18:39:28.226Z,32.28
2022-10-08T18:44:27.545Z,28.83
2022-10-08T18:46:56.349Z,27.27
2022-10-08T18:49:30.439Z,31.05
2022-10-08T18:52:00.111Z,30.50
2022-10-08T18:54:30.876Z,31.00
2022-10-08T18:57:00.478Z,30.27
2022-10-08T18:59:30.930Z,34.30
2022-10-08T19:02:00.719Z,29.85
2022-10-08T19:04:29.769Z,34.13
2022-10-08T19:09:26.794Z,24.60
2022-10-08T19:11:57.507Z,26.42
2022-10-08T19:14:26.301Z,28.25
2022-10-08T19:16:54.939Z,30.83
2022-10-08T19:19:27.541Z,39.97
2022-10-08T19:21:56.542Z,26.65
2022-10-08T19:29:33.450Z,36.53
2022-10-08T19:32:03.742Z,26.60
2022-10-08T19:34:33.532Z,27.70
2022-10-08T19:37:02.216Z,27.63
2022-10-08T19:39:31.647Z,27.67
2022-10-08T19:42:00.143Z,22.38
2022-10-08T19:44:30.035Z,26.27
2022-10-08T19:46:58.572Z,22.63
2022-10-08T19:49:27.086Z,27.85
2022-10-08T19:51:55.460Z,25.30
2022-10-08T19:54:24.125Z,29.60
2022-10-08T19:56:52.580Z,30.85
2022-10-08T19:59:21.165Z,32.50
2022-10-08T20:01:51.104Z,27.38
2022-10-08T20:04:21.791Z,23.95
2022-10-08T20:06:51.033Z,24.20
2022-10-08T20:09:19.455Z,28.02
2022-10-08T20:11:48.119Z,25.83
2022-10-08T20:14:16.767Z,25.08
2022-10-08T20:16:45.615Z,24.23
2022-10-08T20:21:46.273Z,26.80
2022-10-08T20:26:49.064Z,27.40
2022-10-08T20:29:19.490Z,24.38
2022-10-08T20:31:50.144Z,29.88
2022-10-08T20:34:23.779Z,25.85
2022-10-08T20:36:52.526Z,27.98
2022-10-08T20:39:22.867Z,27.42
2022-10-08T20:41:51.988Z,23.92
2022-10-08T20:44:21.140Z,22.15
2022-10-08T20:46:51.592Z,28.02
2022-10-08T20:49:24.843Z,29.08
2022-10-08T20:51:53.403Z,27.67
2022-10-08T20:54:21.978Z,26.13
2022-10-08T20:56:50.508Z,25.70
2022-10-08T20:59:20.253Z,26.95
2022-10-08T21:01:51.051Z,26.10
2022-10-08T21:04:21.573Z,28.42
2022-10-08T21:06:52.124Z,27.40
2022-10-08T21:09:23.163Z,18.60
2022-10-08T21:11:55.333Z,19.63
2022-10-08T21:14:24.156Z,21.63
2022-10-08T21:16:54.706Z,27.40
2022-10-08T21:19:26.052Z,18.75
2022-10-08T21:21:54.525Z,24.02
2022-10-08T21:24:22.889Z,23.77
2022-10-08T21:26:51.763Z,18.67
2022-10-08T21:31:48.471Z,24.27
2022-10-08T21:34:16.939Z,24.90
2022-10-08T21:36:46.766Z,19.50
2022-10-08T21:39:18.481Z,20.90
2022-10-08T21:41:47.664Z,18.33
2022-10-08T21:44:16.454Z,22.50
2022-10-08T21:49:15.784Z,17.90
2022-10-08T21:51:45.191Z,24.60
2022-10-08T21:54:16.715Z,20.65
2022-10-08T21:56:45.871Z,20.90
2022-10-08T21:59:16.308Z,21.48
2022-10-08T22:01:46.498Z,21.25
2022-10-08T22:04:16.806Z,20.63
2022-10-08T22:06:47.188Z,22.90
2022-10-08T22:09:23.431Z,24.80
2022-10-08T22:11:52.686Z,25.63
2022-10-08T22:14:21.778Z,20.85
2022-10-08T22:16:50.362Z,20.25
2022-10-08T22:19:19.368Z,22.70
2022-10-08T22:21:48.316Z,29.35
2022-10-08T22:26:48.255Z,21.45
2022-10-08T22:29:17.230Z,26.50
2022-10-08T22:34:14.033Z,21.63
2022-10-08T22:36:44.874Z,27.38
2022-10-08T22:39:13.902Z,20.25
2022-10-08T22:41:43.760Z,22.85
2022-10-08T22:44:12.120Z,21.60
2022-10-08T22:46:41.240Z,23.98
2022-10-08T22:49:12.450Z,19.42
2022-10-08T22:51:41.122Z,23.92
2022-10-08T22:54:10.179Z,22.08
2022-10-08T22:56:38.694Z,19.00
2022-10-08T22:59:08.646Z,18.27
2022-10-08T23:01:37.165Z,20.15
2022-10-08T23:04:05.620Z,23.13
2022-10-08T23:06:35.407Z,22.48
2022-10-08T23:09:06.101Z,18.88
2022-10-08T23:11:35.406Z,28.13
2022-10-08T23:14:04.330Z,18.83
2022-10-08T23:19:05.922Z,22.15
2022-10-08T23:21:35.209Z,17.33
2022-10-08T23:24:04.030Z,15.63
2022-10-08T23:26:32.765Z,17.85
2022-10-08T23:29:02.020Z,15.55
2022-10-08T23:31:31.773Z,20.67
2022-10-08T23:34:02.376Z,23.80
2022-10-08T23:36:33.023Z,19.63
2022-10-08T23:39:01.680Z,22.05
2022-10-08T23:41:30.189Z,16.63
2022-10-08T23:43:59.164Z,22.65
2022-10-08T23:46:30.607Z,21.73
2022-10-08T23:49:00.056Z,19.77
2022-10-08T23:51:32.181Z,18.13
2022-10-08T23:54:01.533Z,22.00
2022-10-08T23:56:30.108Z,15.77
2022-10-08T23:58:58.560Z,21.85
